Time;durP1;ratioP1;P1;durP2;ratioP2;P2;SDS_P1;SDS_P2;PMS_P1;PMS_P2;Temp;Humidity;BMP_temperature;BMP_pressure;BME280_temperature;BME280_humidity;BME280_pressure;Samples;Min_cycle;Max_cycle;Signal;HPM_P1;HPM_P2
2022/12/31 00:01:03;;;;;;;2.47;2.27;;;;;;;11.88;100.00;100365.91;5037857;28;20025;-75
2022/12/31 00:03:28;;;;;;;6.32;2.28;;;;;;;11.93;100.00;100363.34;5037744;28;20396;-75
2022/12/31 00:05:54;;;;;;;4.10;2.37;;;;;;;11.87;100.00;100347.75;5040364;28;20048;-76
2022/12/31 00:08:19;;;;;;;5.37;2.47;;;;;;;11.80;100.00;100360.69;5034037;28;20100;-75
2022/12/31 00:10:45;;;;;;;6.55;2.35;;;;;;;11.77;100.00;100367.44;5039677;28;20056;-76
2022/12/31 00:13:11;;;;;;;10.57;1.93;;;;;;;11.75;100.00;100361.31;5035978;28;20026;-75
2022/12/31 00:15:38;;;;;;;6.97;2.05;;;;;;;11.77;100.00;100370.19;5041604;28;20055;-76
2022/12/31 00:18:03;;;;;;;;;;;;;;;11.77;100.00;100369.34;5042876;28;20039;-75
2022/12/31 00:20:29;;;;;;;4.07;1.60;;;;;;;11.68;100.00;100348.69;5040461;28;20283;-75
2022/12/31 00:22:55;;;;;;;3.13;1.70;;;;;;;11.65;100.00;100358.22;5033930;28;20068;-76
2022/12/31 00:25:20;;;;;;;2.73;1.53;;;;;;;11.67;100.00;100355.22;5037210;28;20051;-75
2022/12/31 00:27:46;;;;;;;4.63;1.88;;;;;;;11.65;100.00;100365.59;5041538;28;20021;-76
2022/12/31 00:30:12;;;;;;;2.65;1.50;;;;;;;11.62;100.00;100363.25;5042459;28;20030;-75
2022/12/31 00:32:37;;;;;;;4.33;1.50;;;;;;;11.63;100.00;100362.22;5045536;28;20013;-76
2022/12/31 00:35:03;;;;;;;5.67;1.97;;;;;;;11.59;100.00;100366.44;5041232;28;20488;-75
2022/12/31 00:37:29;;;;;;;3.28;1.40;;;;;;;11.58;100.00;100359.25;5041806;28;20048;-75
2022/12/31 00:39:54;;;;;;;2.25;1.13;;;;;;;11.59;100.00;100360.97;5044474;28;20037;-75
2022/12/31 00:42:19;;;;;;;4.10;1.70;;;;;;;11.62;100.00;100361.38;5036407;28;20033;-76
2022/12/31 00:44:45;;;;;;;4.22;1.30;;;;;;;11.58;100.00;100360.06;5032622;28;20125;-76
2022/12/31 00:47:10;;;;;;;3.43;1.33;;;;;;;11.56;100.00;100361.34;5037623;28;20166;-76
2022/12/31 00:49:35;;;;;;;6.73;1.53;;;;;;;11.52;100.00;100360.13;5037759;28;20025;-76
2022/12/31 00:52:01;;;;;;;4.65;1.75;;;;;;;11.55;100.00;100349.56;5040573;28;20085;-75
2022/12/31 00:54:26;;;;;;;4.25;1.35;;;;;;;11.54;100.00;100353.31;5037592;28;20036;-76
2022/12/31 00:56:52;;;;;;;8.50;1.80;;;;;;;11.53;100.00;100353.56;5038700;28;20054;-75
2022/12/31 00:59:17;;;;;;;4.20;1.00;;;;;;;11.49;100.00;100355.91;5037976;28;20045;-76
2022/12/31 01:01:42;;;;;;;6.50;1.50;;;;;;;11.45;100.00;100351.03;5042916;28;20033;-76
2022/12/31 01:04:17;;;;;;;17.30;1.97;;;;;;;11.43;100.00;100340.28;5036899;28;20025;-75
2022/12/31 01:06:43;;;;;;;1.45;1.35;;;;;;;11.44;100.00;100361.19;5041298;28;20025;-77
2022/12/31 01:09:10;;;;;;;4.23;1.80;;;;;;;11.55;100.00;100349.56;5033761;28;20022;-75
2022/12/31 01:11:36;;;;;;;5.28;1.40;;;;;;;11.48;100.00;100358.84;5033054;28;20428;-76
2022/12/31 01:14:10;;;;;;;2.83;1.13;;;;;;;11.54;100.00;100358.81;5037106;28;20036;-74
2022/12/31 01:16:39;;;;;;;5.10;1.30;;;;;;;11.47;100.00;100359.91;5036071;28;20419;-77
2022/12/31 01:19:07;;;;;;;4.80;1.35;;;;;;;11.48;100.00;100359.69;5038169;28;20036;-75
2022/12/31 01:21:34;;;;;;;7.30;1.45;;;;;;;11.50;100.00;100370.44;5044951;28;20033;-75
2022/12/31 01:23:59;;;;;;;5.68;1.08;;;;;;;11.44;100.00;100358.44;5035406;28;20032;-75
2022/12/31 01:26:26;;;;;;;4.17;1.90;;;;;;;11.39;100.00;100365.63;5037064;28;20021;-76
2022/12/31 01:28:51;;;;;;;4.03;1.25;;;;;;;11.40;100.00;100372.78;5033356;28;20556;-76
2022/12/31 01:31:19;;;;;;;5.63;1.00;;;;;;;11.39;100.00;100371.97;5037928;28;20039;-75
2022/12/31 01:33:45;;;;;;;3.22;1.10;;;;;;;11.36;100.00;100377.03;5033679;28;20029;-75
2022/12/31 01:36:16;;;;;;;7.43;1.50;;;;;;;11.33;100.00;100386.53;5039853;28;20116;-76
2022/12/31 01:38:42;;;;;;;6.50;1.48;;;;;;;11.35;100.00;100381.66;5035930;28;20533;-76
2022/12/31 01:41:11;;;;;;;9.20;1.27;;;;;;;11.34;100.00;100377.25;5035596;28;20120;-75
2022/12/31 01:43:54;;;;;;;3.22;1.20;;;;;;;11.29;100.00;100359.72;5027253;28;20508;-76
2022/12/31 01:46:43;;;;;;;6.53;1.20;;;;;;;11.31;100.00;100365.84;5037742;28;20029;-75
2022/12/31 01:49:27;;;;;;;4.18;1.25;;;;;;;11.26;100.00;100366.47;5041023;28;20091;-76
2022/12/31 01:52:06;;;;;;;11.07;1.30;;;;;;;11.25;100.00;100364.78;5040248;28;20033;-75
2022/12/31 01:54:38;;;;;;;6.07;1.27;;;;;;;11.22;100.00;100364.38;5037245;28;20029;-75
2022/12/31 01:57:04;;;;;;;7.05;1.75;;;;;;;11.22;100.00;100357.00;5039272;28;20049;-75
2022/12/31 01:59:31;;;;;;;2.27;1.60;;;;;;;11.21;100.00;100351.75;5041845;28;20032;-75
2022/12/31 02:01:58;;;;;;;6.45;1.33;;;;;;;11.15;100.00;100350.69;5039725;28;20030;-76
2022/12/31 02:04:25;;;;;;;4.90;1.23;;;;;;;11.12;100.00;100344.78;5039657;28;20029;-75
2022/12/31 02:06:58;;;;;;;3.95;1.33;;;;;;;11.09;100.00;100351.53;5038071;28;20052;-75
2022/12/31 02:09:24;;;;;;;2.65;0.98;;;;;;;11.05;100.00;100350.28;5032567;28;20040;-75
2022/12/31 02:11:49;;;;;;;8.43;1.50;;;;;;;10.97;100.00;100347.75;5035187;28;20034;-76
2022/12/31 02:14:21;;;;;;;7.77;1.33;;;;;;;11.04;100.00;100350.50;5038905;28;20045;-76
2022/12/31 02:17:14;;;;;;;4.00;1.30;;;;;;;10.99;100.00;100358.53;5039150;28;20481;-75
2022/12/31 02:20:18;;;;;;;4.45;1.25;;;;;;;10.98;100.00;100363.16;5039762;28;20041;-77
2022/12/31 02:22:58;;;;;;;4.38;1.17;;;;;;;10.92;100.00;100363.13;5041619;28;20086;-76
2022/12/31 02:25:27;;;;;;;5.28;1.52;;;;;;;10.96;100.00;100375.38;5035440;28;20409;-75
2022/12/31 02:28:07;;;;;;;3.78;1.20;;;;;;;10.97;100.00;100374.31;5035777;28;20400;-76
2022/12/31 02:30:34;;;;;;;8.82;1.40;;;;;;;10.88;100.00;100370.13;5034603;28;20025;-76
2022/12/31 02:33:23;;;;;;;7.47;1.38;;;;;;;10.89;100.00;100358.09;5038203;28;20030;-75
2022/12/31 02:35:57;;;;;;;2.60;1.33;;;;;;;10.88;100.00;100364.63;5040064;28;20033;-75
2022/12/31 02:38:30;;;;;;;4.63;0.98;;;;;;;10.86;100.00;100374.94;5037243;28;20021;-75
2022/12/31 02:40:57;;;;;;;6.32;1.10;;;;;;;10.84;100.00;100372.41;5037153;28;20689;-75
2022/12/31 02:43:23;;;;;;;4.65;1.23;;;;;;;10.80;100.00;100384.00;5034268;28;20033;-76
2022/12/31 02:46:01;;;;;;;5.15;1.00;;;;;;;10.77;100.00;100392.63;5033717;28;20041;-77
2022/12/31 02:48:50;;;;;;;4.72;0.90;;;;;;;10.79;100.00;100388.63;5037823;28;20032;-75
2022/12/31 02:51:38;;;;;;;3.10;1.17;;;;;;;10.68;100.00;100399.38;5031129;28;20037;-75
2022/12/31 02:54:23;;;;;;;5.40;1.33;;;;;;;10.64;100.00;100401.72;5039053;28;20029;-75
2022/12/31 02:57:14;;;;;;;6.40;1.10;;;;;;;10.62;100.00;100394.75;5039161;28;20128;-75
2022/12/31 03:02:45;;;;;;;3.58;1.42;;;;;;;10.56;100.00;100401.88;5033416;28;20113;-75
2022/12/31 03:05:13;;;;;;;3.63;1.00;;;;;;;10.54;100.00;100408.63;5048259;28;20717;-76
2022/12/31 03:07:40;;;;;;;3.22;1.02;;;;;;;10.52;100.00;100394.31;5034701;28;20120;-76
2022/12/31 03:10:06;;;;;;;5.20;0.90;;;;;;;10.52;100.00;100389.66;5038969;28;20092;-76
2022/12/31 03:12:46;;;;;;;2.13;0.80;;;;;;;10.47;100.00;100378.47;5033393;28;20033;-75
2022/12/31 03:15:33;;;;;;;1.35;0.80;;;;;;;10.46;100.00;100386.94;5038641;28;20045;-76
2022/12/31 03:18:03;;;;;;;3.08;1.35;;;;;;;10.41;100.00;100398.47;5035394;28;20041;-76
2022/12/31 03:23:28;;;;;;;10.25;1.63;;;;;;;10.46;100.00;100395.16;5036206;28;20036;-75
2022/12/31 03:25:55;;;;;;;6.18;1.15;;;;;;;10.41;100.00;100392.19;5034704;28;20392;-75
2022/12/31 03:28:23;;;;;;;4.03;1.27;;;;;;;10.38;100.00;100376.16;5036041;28;20032;-76
2022/12/31 03:30:53;;;;;;;4.07;1.40;;;;;;;10.44;100.00;100381.66;5036647;28;20099;-75
2022/12/31 03:33:19;;;;;;;3.45;1.60;;;;;;;10.43;100.00;100379.13;5032235;28;20033;-75
2022/12/31 03:35:46;;;;;;;3.75;1.38;;;;;;;10.35;100.00;100376.59;5036464;28;20072;-75
2022/12/31 03:38:12;;;;;;;4.50;1.38;;;;;;;10.32;100.00;100374.25;5035831;28;20108;-75
2022/12/31 03:40:43;;;;;;;4.68;1.40;;;;;;;10.36;100.00;100367.31;5037745;28;20485;-76
2022/12/31 03:43:09;;;;;;;8.90;1.27;;;;;;;10.32;100.00;100353.22;5038997;28;20057;-75
2022/12/31 03:45:34;;;;;;;2.93;1.00;;;;;;;10.34;100.00;100369.41;5043411;28;20555;-75
2022/12/31 03:48:01;;;;;;;5.57;1.77;;;;;;;10.35;100.00;100376.59;5038284;28;20040;-76
2022/12/31 03:50:27;;;;;;;;;;;;;;;10.35;100.00;100357.44;5040012;28;20440;-75
2022/12/31 03:52:52;;;;;;;5.15;1.50;;;;;;;10.35;100.00;100355.50;5039224;28;19940;-75
2022/12/31 03:55:18;;;;;;;5.03;1.50;;;;;;;10.45;100.00;100347.75;5040610;28;20058;-75
2022/12/31 03:57:44;;;;;;;5.17;2.30;;;;;;;10.39;100.00;100355.94;5042894;28;20412;-75
2022/12/31 04:00:14;;;;;;;3.30;1.70;;;;;;;10.37;100.00;100347.09;5038185;28;20112;-76
2022/12/31 04:02:40;;;;;;;3.70;1.73;;;;;;;10.38;100.00;100349.63;5036003;28;20474;-75
2022/12/31 04:05:06;;;;;;;4.15;2.95;;;;;;;10.42;100.00;100350.88;5042375;28;20052;-75
2022/12/31 04:07:32;;;;;;;3.90;2.40;;;;;;;10.43;100.00;100358.06;5040691;28;20029;-74
2022/12/31 04:09:57;;;;;;;4.43;3.07;;;;;;;10.43;100.00;100343.53;5037319;28;20512;-75
2022/12/31 04:12:23;;;;;;;6.10;3.17;;;;;;;10.46;100.00;100359.56;5039979;28;20049;-75
2022/12/31 04:14:50;;;;;;;6.72;3.40;;;;;;;10.57;100.00;100364.41;5041084;28;20131;-74
2022/12/31 04:17:15;;;;;;;3.80;3.35;;;;;;;10.65;100.00;100345.00;5040417;28;20057;-75
2022/12/31 04:19:41;;;;;;;5.53;3.90;;;;;;;10.72;100.00;100343.16;5036191;28;20079;-76
2022/12/31 04:22:06;;;;;;;5.70;3.57;;;;;;;10.78;100.00;100350.50;5035931;28;20040;-75
2022/12/31 04:24:31;;;;;;;3.63;3.30;;;;;;;10.86;100.00;100353.03;5041146;28;20029;-75
2022/12/31 04:26:57;;;;;;;6.27;3.60;;;;;;;10.91;100.00;100339.53;5038249;28;20025;-75
2022/12/31 04:29:22;;;;;;;4.95;2.95;;;;;;;10.92;100.00;100333.00;5034086;28;20025;-75
2022/12/31 04:31:48;;;;;;;2.87;2.63;;;;;;;11.02;100.00;100349.84;5037179;28;20393;-75
2022/12/31 04:34:13;;;;;;;7.75;2.53;;;;;;;11.02;100.00;100337.00;5043432;28;20103;-76
2022/12/31 04:36:39;;;;;;;7.20;1.93;;;;;;;11.02;100.00;100341.63;5042047;28;20476;-77
2022/12/31 04:39:04;;;;;;;2.72;2.25;;;;;;;11.09;100.00;100347.94;5036938;28;20029;-75
2022/12/31 04:41:30;;;;;;;1.30;1.20;;;;;;;11.16;100.00;100335.09;5040552;28;20124;-76
2022/12/31 04:43:57;;;;;;;3.23;1.30;;;;;;;11.19;100.00;100334.66;5038151;28;20433;-76
2022/12/31 04:46:34;;;;;;;3.90;1.48;;;;;;;11.21;100.00;100329.81;5040797;28;20033;-75
2022/12/31 04:49:01;;;;;;;3.72;1.05;;;;;;;11.21;100.00;100341.59;5035063;28;20037;-75
2022/12/31 04:51:28;;;;;;;1.02;1.02;;;;;;;11.31;100.00;100342.00;5039319;28;20039;-75
2022/12/31 04:53:54;;;;;;;1.85;1.38;;;;;;;11.31;100.00;100344.75;5035431;28;20086;-75
2022/12/31 04:56:19;;;;;;;1.50;1.40;;;;;;;11.32;100.00;100335.47;5045063;28;20029;-74
2022/12/31 04:58:45;;;;;;;3.03;1.57;;;;;;;11.28;100.00;100363.53;5039023;28;20040;-77
2022/12/31 05:01:12;;;;;;;1.93;1.70;;;;;;;11.25;100.00;100345.59;5035572;28;20587;-75
2022/12/31 05:03:38;;;;;;;2.42;1.60;;;;;;;11.28;100.00;100345.19;5038703;28;20025;-76
2022/12/31 05:06:15;;;;;;;1.90;1.80;;;;;;;11.30;100.00;100365.00;5035962;28;20493;-76
2022/12/31 05:08:40;;;;;;;2.15;1.95;;;;;;;11.33;100.00;100372.81;5045496;28;20025;-77
2022/12/31 05:11:06;;;;;;;2.42;1.85;;;;;;;11.31;100.00;100374.09;5041280;28;20041;-76
2022/12/31 05:13:32;;;;;;;2.93;2.00;;;;;;;11.23;100.00;100377.03;5039949;28;20029;-75
2022/12/31 05:15:57;;;;;;;2.22;2.10;;;;;;;11.33;100.00;100372.81;5042450;28;20035;-77
2022/12/31 05:18:22;;;;;;;3.33;2.37;;;;;;;11.35;100.00;100364.34;5046309;28;20040;-75
2022/12/31 05:20:48;;;;;;;2.70;2.40;;;;;;;11.38;100.00;100358.44;5035398;28;20033;-76
2022/12/31 05:23:15;;;;;;;5.27;2.43;;;;;;;11.37;100.00;100362.25;5037589;28;20497;-75
2022/12/31 05:25:43;;;;;;;2.45;2.20;;;;;;;11.32;100.00;100357.41;5039755;28;20508;-75
2022/12/31 05:28:08;;;;;;;2.70;2.50;;;;;;;11.36;100.00;100360.56;5038928;28;20127;-75
2022/12/31 05:30:34;;;;;;;2.73;2.53;;;;;;;11.36;100.00;100369.63;5037124;28;20159;-75
2022/12/31 05:32:59;;;;;;;3.47;2.25;;;;;;;11.40;100.00;100365.41;5041317;28;20033;-76
2022/12/31 05:35:25;;;;;;;3.00;2.50;;;;;;;11.41;100.00;100371.72;5037348;28;20040;-76
2022/12/31 05:37:50;;;;;;;2.97;2.67;;;;;;;11.38;100.00;100358.44;5030137;28;20091;-75
2022/12/31 05:40:16;;;;;;;3.05;2.65;;;;;;;11.41;100.00;100369.81;5040527;28;20025;-76
2022/12/31 05:42:41;;;;;;;4.45;3.20;;;;;;;11.47;100.00;100360.75;5037885;28;20037;-76
2022/12/31 05:45:07;;;;;;;3.33;2.77;;;;;;;11.44;100.00;100363.94;5032025;28;20037;-75
2022/12/31 05:47:33;;;;;;;4.13;3.03;;;;;;;11.44;100.00;100360.34;5033284;28;20029;-75
2022/12/31 05:49:58;;;;;;;3.77;3.10;;;;;;;11.45;100.00;100370.25;5036695;28;20108;-76
2022/12/31 05:52:23;;;;;;;4.33;3.33;;;;;;;11.46;100.00;100370.03;5035847;28;20059;-76
2022/12/31 05:54:49;;;;;;;4.17;3.83;;;;;;;11.52;100.00;100371.09;5041289;28;20469;-75
2022/12/31 05:57:14;;;;;;;7.45;4.90;;;;;;;11.59;100.00;100358.22;5035037;28;20054;-76
2022/12/31 05:59:40;;;;;;;6.43;4.63;;;;;;;11.62;100.00;100360.50;5034634;28;20492;-77
2022/12/31 06:02:05;;;;;;;6.40;4.63;;;;;;;11.66;100.00;100364.53;5035032;28;20036;-76
2022/12/31 06:04:31;;;;;;;5.32;3.90;;;;;;;11.68;100.00;100370.66;5044337;28;20473;-76
2022/12/31 06:06:56;;;;;;;5.70;3.37;;;;;;;11.77;100.00;100378.41;5031339;28;20114;-76
2022/12/31 06:09:22;;;;;;;5.47;2.90;;;;;;;11.84;100.00;100372.91;5037947;28;20404;-76
2022/12/31 06:11:47;;;;;;;4.23;3.20;;;;;;;11.86;100.00;100382.59;5040025;28;20063;-75
2022/12/31 06:14:13;;;;;;;3.53;2.60;;;;;;;11.91;100.00;100403.91;5041820;28;20040;-75
2022/12/31 06:16:38;;;;;;;5.03;2.67;;;;;;;12.06;100.00;100396.25;5036141;28;20064;-76
2022/12/31 06:19:04;;;;;;;2.77;2.57;;;;;;;12.13;100.00;100391.56;5036573;28;20028;-77
2022/12/31 06:21:29;;;;;;;4.13;2.60;;;;;;;12.21;100.00;100399.53;5037872;28;20079;-76
2022/12/31 06:23:55;;;;;;;4.75;2.22;;;;;;;12.27;100.00;100390.44;5038705;28;20503;-76
2022/12/31 06:26:20;;;;;;;2.58;1.95;;;;;;;12.32;100.00;100413.44;5036601;28;20045;-75
2022/12/31 06:28:46;;;;;;;1.75;1.48;;;;;;;12.42;100.00;100412.94;5038336;28;20393;-76
2022/12/31 06:31:13;;;;;;;1.40;1.20;;;;;;;12.46;100.00;100406.81;5037022;28;20105;-76
2022/12/31 06:33:39;;;;;;;1.83;1.05;;;;;;;12.47;100.00;100422.22;5053732;28;20557;-77
2022/12/31 06:36:07;;;;;;;2.43;1.10;;;;;;;12.52;100.00;100403.19;5037228;28;20124;-75
2022/12/31 06:38:35;;;;;;;0.88;0.70;;;;;;;12.49;100.00;100419.28;5037322;28;20132;-76
2022/12/31 06:41:06;;;;;;;4.97;0.90;;;;;;;12.59;100.00;100408.66;5041176;28;20109;-76
2022/12/31 06:43:32;;;;;;;1.02;0.93;;;;;;;12.63;100.00;100407.13;5029497;28;20134;-75
2022/12/31 06:46:03;;;;;;;1.65;0.75;;;;;;;12.66;100.00;100402.03;5046559;28;20411;-75
2022/12/31 06:48:28;;;;;;;2.15;1.00;;;;;;;12.64;100.00;100406.09;5049830;28;20045;-76
2022/12/31 06:50:54;;;;;;;0.50;0.50;;;;;;;12.63;100.00;100404.38;5035653;28;20068;-76
2022/12/31 06:53:19;;;;;;;0.60;0.60;;;;;;;12.64;100.00;100400.59;5034543;28;20104;-76
2022/12/31 06:55:47;;;;;;;0.77;0.60;;;;;;;12.68;100.00;100393.56;5031881;28;20040;-77
2022/12/31 06:58:13;;;;;;;1.20;0.90;;;;;;;12.66;100.00;100404.78;5030564;28;20037;-75
2022/12/31 07:00:49;;;;;;;2.65;0.80;;;;;;;12.70;100.00;100399.69;5034494;28;20057;-75
2022/12/31 07:03:27;;;;;;;0.98;0.98;;;;;;;12.71;100.00;100407.69;5033514;28;20128;-75
2022/12/31 07:06:07;;;;;;;2.38;1.20;;;;;;;12.74;100.00;100422.91;5037009;28;20147;-75
2022/12/31 07:08:55;;;;;;;1.45;1.40;;;;;;;12.74;100.00;100411.91;5031936;28;20465;-75
2022/12/31 07:11:25;;;;;;;3.55;2.90;;;;;;;12.83;100.00;100424.31;5034630;28;20135;-75
2022/12/31 07:14:13;;;;;;;3.67;2.35;;;;;;;12.81;100.00;100424.53;5034999;28;20033;-75
2022/12/31 07:16:38;;;;;;;3.92;2.70;;;;;;;12.83;100.00;100433.44;5036482;28;20036;-75
2022/12/31 07:19:38;;;;;;;3.73;2.20;;;;;;;12.83;100.00;100432.56;5038617;28;20022;-75
2022/12/31 07:22:04;;;;;;;4.78;2.38;;;;;;;12.79;100.00;100439.56;5035353;28;20045;-75
2022/12/31 07:24:30;;;;;;;3.88;1.90;;;;;;;12.87;100.00;100420.06;5034554;28;20366;-76
2022/12/31 07:27:34;;;;;;;6.77;1.60;;;;;;;12.90;100.00;100408.63;5033645;28;20036;-74
2022/12/31 07:30:19;;;;;;;1.15;1.00;;;;;;;12.87;100.00;100409.09;5037889;28;20032;-76
2022/12/31 07:33:07;;;;;;;1.88;0.80;;;;;;;12.88;100.00;100405.25;5040863;28;20493;-77
2022/12/31 07:35:50;;;;;;;2.88;1.00;;;;;;;12.81;100.00;100401.72;5034497;28;20048;-77
2022/12/31 07:38:30;;;;;;;0.75;0.65;;;;;;;12.88;100.00;100410.75;5044314;28;20194;-77
2022/12/31 07:41:13;;;;;;;1.60;0.90;;;;;;;12.87;100.00;100422.81;5033226;28;20439;-77
2022/12/31 07:43:53;;;;;;;7.50;1.27;;;;;;;12.88;100.00;100425.38;5031369;28;20429;-78
2022/12/31 07:46:23;;;;;;;8.95;1.35;;;;;;;12.76;100.00;100420.78;5039932;28;20076;-77
2022/12/31 07:48:49;;;;;;;1.48;0.80;;;;;;;12.71;100.00;100423.38;5037314;28;20033;-77
2022/12/31 07:51:15;;;;;;;1.67;1.00;;;;;;;12.68;100.00;100435.63;5029303;28;20087;-77
2022/12/31 07:53:40;;;;;;;2.57;1.10;;;;;;;12.66;100.00;100435.00;5032711;28;20032;-77
2022/12/31 07:56:08;;;;;;;5.43;1.20;;;;;;;12.59;100.00;100439.69;5038204;28;20022;-77
2022/12/31 07:58:39;;;;;;;2.58;0.90;;;;;;;12.55;100.00;100448.63;5038513;28;20077;-77
2022/12/31 08:01:11;;;;;;;7.32;1.27;;;;;;;12.56;100.00;100445.66;5044429;28;20505;-77
2022/12/31 08:03:39;;;;;;;1.33;0.90;;;;;;;12.50;100.00;100453.91;5036885;28;20052;-79
2022/12/31 08:06:16;;;;;;;4.70;1.23;;;;;;;12.48;100.00;100459.63;5035958;28;20032;-77
2022/12/31 08:09:09;;;;;;;4.43;0.90;;;;;;;12.40;100.00;100470.88;5029790;28;20029;-79
2022/12/31 08:11:43;;;;;;;2.92;1.17;;;;;;;12.37;100.00;100482.28;5040477;28;20033;-75
2022/12/31 08:14:11;;;;;;;6.32;0.93;;;;;;;12.36;100.00;100486.09;5033636;28;20381;-75
2022/12/31 08:16:37;;;;;;;3.03;0.88;;;;;;;12.33;100.00;100499.44;5034301;28;20053;-74
2022/12/31 08:19:03;;;;;;;5.40;1.10;;;;;;;12.32;100.00;100495.00;5034323;28;20057;-75
2022/12/31 08:21:55;;;;;;;4.63;1.17;;;;;;;12.29;100.00;100501.78;5035772;28;20465;-75
2022/12/31 08:24:53;;;;;;;4.47;0.90;;;;;;;12.32;100.00;100511.47;5038401;28;20026;-76
2022/12/31 08:27:21;;;;;;;;;;;;;;;12.33;100.00;100518.66;5033590;28;20056;-76
2022/12/31 08:30:07;;;;;;;3.35;0.95;;;;;;;12.37;100.00;100519.88;5040863;28;19916;-77
2022/12/31 08:33:10;;;;;;;5.70;1.40;;;;;;;12.37;100.00;100530.88;5042648;28;20036;-76
2022/12/31 08:36:07;;;;;;;5.53;0.95;;;;;;;12.40;100.00;100545.03;5036406;28;20136;-76
2022/12/31 08:38:54;;;;;;;4.63;1.30;;;;;;;12.40;100.00;100530.47;5041260;28;20105;-75
2022/12/31 08:41:25;;;;;;;10.70;1.47;;;;;;;12.42;100.00;100537.41;5037251;28;20049;-76
2022/12/31 08:44:00;;;;;;;9.15;1.20;;;;;;;12.49;100.00;100545.66;5026522;28;20302;-75
2022/12/31 08:46:58;;;;;;;5.50;1.38;;;;;;;12.52;100.00;100547.94;5037408;28;20048;-76
2022/12/31 08:49:27;;;;;;;7.13;1.20;;;;;;;12.50;100.00;100550.06;5043610;28;20032;-76
2022/12/31 08:51:53;;;;;;;9.23;1.58;;;;;;;12.62;100.00;100562.06;5035364;28;20033;-75
2022/12/31 08:54:19;;;;;;;4.20;1.87;;;;;;;12.74;100.00;100563.94;5041622;28;20875;-76
2022/12/31 08:56:52;;;;;;;3.87;1.40;;;;;;;12.75;100.00;100571.09;5038752;28;20060;-76
2022/12/31 08:59:25;;;;;;;7.30;2.10;;;;;;;12.93;100.00;100567.66;5037581;28;20040;-77
2022/12/31 09:02:34;;;;;;;9.68;1.23;;;;;;;12.99;100.00;100561.28;5035838;28;20037;-76
2022/12/31 09:05:34;;;;;;;7.65;1.42;;;;;;;13.09;100.00;100561.66;5032766;28;20048;-76
2022/12/31 09:08:21;;;;;;;9.90;1.90;;;;;;;13.08;100.00;100557.22;5037854;28;20044;-76
2022/12/31 09:10:55;;;;;;;4.30;1.20;;;;;;;13.11;100.00;100552.13;5036881;28;20116;-78
2022/12/31 09:13:31;;;;;;;6.40;1.42;;;;;;;13.19;100.00;100565.59;5035069;28;20044;-74
2022/12/31 09:16:15;;;;;;;6.53;1.30;;;;;;;13.30;100.00;100561.31;5034326;28;20025;-74
2022/12/31 09:18:41;;;;;;;4.00;1.00;;;;;;;13.45;100.00;100559.09;5036183;28;20087;-76
2022/12/31 09:21:12;;;;;;;5.35;1.50;;;;;;;13.51;100.00;100553.53;5035476;28;20489;-74
2022/12/31 09:23:38;;;;;;;6.30;1.23;;;;;;;13.64;100.00;100569.09;5044187;28;20692;-76
2022/12/31 09:26:40;;;;;;;5.72;1.90;;;;;;;13.61;100.00;100580.56;5039648;28;20021;-74
2022/12/31 09:29:30;;;;;;;4.53;1.25;;;;;;;13.81;100.00;100584.00;5040115;28;20040;-74
2022/12/31 09:32:27;;;;;;;6.28;1.45;;;;;;;13.86;100.00;100590.53;5036146;28;20590;-74
2022/12/31 09:35:02;;;;;;;2.88;1.52;;;;;;;13.92;100.00;100597.06;5035154;28;20034;-74
2022/12/31 09:37:45;;;;;;;4.15;1.77;;;;;;;13.92;100.00;100605.31;5038023;28;20064;-75
2022/12/31 09:40:28;;;;;;;8.10;2.90;;;;;;;14.03;100.00;100608.16;5056458;28;20491;-74
2022/12/31 09:43:01;;;;;;;3.40;1.40;;;;;;;14.00;100.00;100591.25;5039361;28;20115;-77
2022/12/31 09:45:45;;;;;;;9.15;1.50;;;;;;;14.02;100.00;100589.97;5034222;28;20033;-75
2022/12/31 09:48:35;;;;;;;7.25;1.60;;;;;;;13.99;100.00;100601.41;5034426;28;20136;-75
2022/12/31 09:51:15;;;;;;;5.30;1.35;;;;;;;13.96;100.00;100603.78;5034797;28;20037;-74
2022/12/31 09:54:22;;;;;;;4.22;1.50;;;;;;;13.97;100.00;100606.31;5029875;28;20107;-76
2022/12/31 09:57:03;;;;;;;3.38;1.80;;;;;;;13.94;100.00;100603.16;5031786;28;20040;-74
2022/12/31 09:59:46;;;;;;;2.95;1.40;;;;;;;13.98;100.00;100610.75;5039195;28;20072;-75
2022/12/31 10:02:24;;;;;;;4.85;1.80;;;;;;;14.05;100.00;100608.81;5034387;28;20022;-73
2022/12/31 10:05:11;;;;;;;6.40;1.77;;;;;;;14.11;100.00;100624.41;5036298;28;20060;-74
2022/12/31 10:07:52;;;;;;;5.50;1.30;;;;;;;14.16;100.00;100613.56;5032035;28;20040;-74
2022/12/31 10:10:20;;;;;;;7.13;1.83;;;;;;;14.19;100.00;100593.00;5039535;28;20120;-74
2022/12/31 10:13:43;;;;;;;4.32;1.20;;;;;;;14.18;100.00;100599.53;5037021;28;20029;-77
2022/12/31 10:16:31;;;;;;;6.57;2.00;;;;;;;14.21;100.00;100604.66;5018141;28;20726;-74
2022/12/31 10:18:59;;;;;;;7.63;1.95;;;;;;;14.29;100.00;100615.38;5036770;28;20163;-74
2022/12/31 10:21:53;;;;;;;7.65;1.83;;;;;;;14.34;100.00;100601.75;5038777;28;20029;-74
2022/12/31 10:24:26;;;;;;;2.78;1.40;;;;;;;14.34;100.00;100615.53;5036844;28;20462;-74
2022/12/31 10:27:04;;;;;;;3.28;1.58;;;;;;;14.35;100.00;100615.31;5033858;28;20061;-75
2022/12/31 10:29:36;;;;;;;3.90;1.50;;;;;;;14.34;100.00;100608.13;5036372;28;20388;-73
2022/12/31 10:32:07;;;;;;;3.63;1.45;;;;;;;14.40;100.00;100604.44;5034012;28;20678;-74
2022/12/31 10:34:59;;;;;;;5.35;1.27;;;;;;;14.35;100.00;100604.28;5036442;28;20033;-75
2022/12/31 10:37:38;;;;;;;3.35;1.50;;;;;;;14.28;100.00;100617.28;5039392;28;20036;-75
2022/12/31 10:40:38;;;;;;;5.18;1.80;;;;;;;14.27;100.00;100617.50;5037748;28;20458;-73
2022/12/31 10:43:41;;;;;;;7.30;1.90;;;;;;;14.14;100.00;100614.88;5038773;28;20049;-73
2022/12/31 10:46:17;;;;;;;13.35;1.83;;;;;;;14.07;100.00;100611.31;5042017;28;20130;-72
2022/12/31 10:48:51;;;;;;;5.78;2.28;;;;;;;14.05;100.00;100607.94;5043757;28;20024;-74
2022/12/31 10:51:38;;;;;;;6.95;1.90;;;;;;;14.04;100.00;100614.53;5038405;28;20029;-73
2022/12/31 10:54:35;;;;;;;7.80;1.77;;;;;;;14.02;100.00;100622.16;5036475;28;20203;-73
2022/12/31 10:57:05;;;;;;;14.07;1.80;;;;;;;14.04;100.00;100620.03;5043225;28;20396;-74
2022/12/31 10:59:56;;;;;;;11.02;2.10;;;;;;;14.09;100.00;100617.44;5036662;28;20031;-73
2022/12/31 11:02:39;;;;;;;13.25;2.05;;;;;;;14.28;100.00;100608.19;5042835;28;20388;-74
2022/12/31 11:05:10;;;;;;;9.30;2.70;;;;;;;14.39;100.00;100632.22;5035803;28;20072;-74
2022/12/31 11:08:05;;;;;;;12.98;4.45;;;;;;;14.46;100.00;100630.25;5036180;28;20021;-74
2022/12/31 11:10:53;;;;;;;8.10;4.63;;;;;;;14.60;100.00;100640.91;5039746;28;20037;-73
2022/12/31 11:13:30;;;;;;;12.52;2.83;;;;;;;14.68;100.00;100637.03;5036739;28;20037;-74
2022/12/31 11:16:16;;;;;;;9.68;2.47;;;;;;;14.69;100.00;100639.56;5035527;28;20079;-74
2022/12/31 11:19:01;;;;;;;11.23;2.03;;;;;;;14.70;100.00;100632.09;5036750;28;20400;-76
2022/12/31 11:21:53;;;;;;;6.88;1.77;;;;;;;14.69;100.00;100641.47;5033215;28;20029;-77
2022/12/31 11:25:00;;;;;;;9.18;2.53;;;;;;;14.69;100.00;100652.50;5034817;28;20033;-74
2022/12/31 11:27:59;;;;;;;13.45;3.08;;;;;;;14.57;100.00;100640.53;5031128;28;20446;-73
2022/12/31 11:30:31;;;;;;;;;;;;;;;14.54;100.00;100649.25;5040756;28;20053;-74
2022/12/31 11:33:00;;;;;;;4.40;2.33;;;;;;;14.49;100.00;100638.91;5034620;28;19920;-73
2022/12/31 11:35:37;;;;;;;12.20;2.70;;;;;;;14.46;100.00;100630.25;5035308;28;20033;-74
2022/12/31 11:38:32;;;;;;;10.43;2.20;;;;;;;14.45;100.00;100629.41;5033087;28;20034;-73
2022/12/31 11:41:27;;;;;;;10.05;2.38;;;;;;;14.39;100.00;100627.56;5029880;28;20512;-73
2022/12/31 11:44:12;;;;;;;15.57;2.55;;;;;;;14.40;100.00;100625.66;5043792;28;20037;-74
2022/12/31 11:47:01;;;;;;;9.02;1.98;;;;;;;14.40;100.00;100615.47;5031246;28;20119;-74
2022/12/31 11:49:54;;;;;;;8.15;2.85;;;;;;;14.39;100.00;100615.69;5034441;28;20029;-75
2022/12/31 11:52:42;;;;;;;6.22;2.03;;;;;;;14.35;100.00;100597.94;5037185;28;20079;-76